Airfield Spitzerberg WebCam, Wind- und Wetterwerte

LOAS PhotoWebcam

Blick vom Tower Richtung Süden nach Prellenkirchen

Das Bild wird alle 5 Minuten direkt von der Smartphone-Kamera ins Internet gesendet.
Verwendet wird die Android-App MobileWebcam, die das jpg-Bild via FTP zum Webserver hochlädt.
Weitere Übertragungsmöglichkeiten sind HTTP, Email und Dropbox ®.
PhotoWebCam sponsoring wedding&beauty

Die Wetterstation wurde  errichtet und erstellt von : Werner Kroneis, Martin Mokrusch in Zusammenarbeit mit dem Flugsportzentrum Spitzerberg
Verwendung auf unserer Seite mit freundlicher Genehmigung von Werner Kroneis, windy.tv, meteoblue.com.

  AustroControl Wettterradar

 

empfohlene Webcams:

a1-arsenal.panomax.com

Kamera am A1-Turm im Arsenal, bei klarem Wetter, Sicht bis zum Spitzerberg

www.foto-webcam.eu

Wetterkameras mit höchster Auflösung in Europa

www.panomax.com

interaktive 360° Panoramen

www.bergfex.at

Bergfex

webcams.kelag.at

KELAG Webcams in Kärnten & Osttirol

 

METAR ist die Abkürzung für franz. Message d’observation météorologique régulière pour l’aviation bzw. MÉTéorologique Aviation Régulière. Im Englischen sind die Formulierungen METeorological Aerodrome Report, Aviation Routine Weather Report oder auch Meteorological Aviation Routine Weather Report gebräuchlich.

TAF Terminal Aerodrome Forecast ist eine, durch ICAO-Richtlinien, international normierte Flugwetterprognose für ein(en) bestimmten(s) Flugfeld, -platz oder -hafen. Er gibt Auskunft über das so genannte "aktuelle Wetter" und die Wetterentwicklung im Gültigkeitszeitraum. Die angegebenen bzw. vorausgesagten Parameter sind auf die Bedürfnisse von landenden oder startenden Luftfahrzeugen ausgerichtet. Zum Teil werden aktuelle Wetterbeobachtungen in kürzest möglicher Form im sogenannten GAFOR-Code ausgegeben.

 


Anmeldung

Aviation WX Wien-Schwechat

[Source: ADDS]
METAR
LOWW 191750Z 33009KT CAVOK 26/12 Q1021 NOSIG =
TAF
COR LOWW 191715Z 1918/2024 32010KT CAVOK TX30/2014Z TN18/2002Z BECMG 1922/1924 30004KT BECMG 2009/2011 03007KT BECMG 2013/2016 16007KT TEMPO 2018/2024 20004KT =
SR / SS: 02:54 / 18:57 UTC (LOWW, 2018-06-19)

Aviation WX Bratislava

[Source: ADDS]
METAR
LZIB 191730Z 34008KT 290V360 CAVOK 27/11 Q1020 NOSIG =
TAF
LZIB 191700Z 1918/2018 34007KT CAVOK BECMG 2002/2004 04003KT BECMG 2009/2011 11006KT =
SR / SS: 02:50 / 18:54 UTC (LZIB, 2018-06-19)

Terminkalender

June 2018
M T W T F S S
28 29 30 31 1 2 3
4 5 6 7 8 9 10
11 12 13 14 15 16 17
18 19 20 21 22 23 24
25 26 27 28 29 30 1

nächsten Termine

No events

Wer ist online

Aktuell sind 7 Gäste und keine Mitglieder online

Cookies erleichtern uns die Bereitstellung unserer Dienste. Mit der Nutzung unserer Webseite, erlauben Sie uns Cookies zu verwenden.
Mehr Information Ok